createdAt,value
2023-05-23T00:00:42.481Z,17.15
2023-05-23T00:03:17.584Z,17.14
2023-05-23T00:05:50.922Z,17.15
2023-05-23T00:08:21.810Z,17.03
2023-05-23T00:10:52.181Z,16.93
2023-05-23T00:13:24.681Z,16.87
2023-05-23T00:15:56.864Z,16.87
2023-05-23T00:18:27.740Z,16.84
2023-05-23T00:20:58.830Z,16.79
2023-05-23T00:23:31.018Z,16.73
2023-05-23T00:26:06.170Z,16.65
2023-05-23T00:28:37.259Z,16.57
2023-05-23T00:31:09.626Z,16.48
2023-05-23T00:33:42.817Z,16.41
2023-05-23T00:36:18.169Z,16.44
2023-05-23T00:38:49.000Z,16.45
2023-05-23T00:41:21.503Z,16.42
2023-05-23T00:43:55.476Z,16.36
2023-05-23T00:46:34.353Z,16.38
2023-05-23T00:49:06.553Z,16.36
2023-05-23T00:51:39.885Z,16.30
2023-05-23T00:54:14.187Z,16.26
2023-05-23T00:56:46.603Z,16.28
2023-05-23T00:59:18.661Z,16.33
2023-05-23T01:01:54.532Z,16.32
2023-05-23T01:04:31.077Z,16.32
2023-05-23T01:07:05.668Z,16.32
2023-05-23T01:09:39.144Z,16.30
2023-05-23T01:12:38.178Z,16.33
2023-05-23T01:15:15.989Z,16.35
2023-05-23T01:17:49.059Z,16.30
2023-05-23T01:20:53.811Z,16.30
2023-05-23T01:23:42.790Z,16.29
2023-05-23T01:26:37.088Z,16.28
2023-05-23T01:29:21.114Z,16.26
2023-05-23T01:31:56.110Z,16.25
2023-05-23T01:34:27.077Z,16.24
2023-05-23T01:36:58.791Z,16.24
2023-05-23T01:39:30.581Z,16.21
2023-05-23T01:42:02.035Z,16.16
2023-05-23T01:44:34.377Z,16.09
2023-05-23T01:47:07.758Z,16.06
2023-05-23T01:49:39.874Z,16.09
2023-05-23T01:52:14.424Z,16.11
2023-05-23T01:54:47.658Z,16.11
2023-05-23T01:57:20.472Z,16.14
2023-05-23T01:59:51.216Z,16.11
2023-05-23T02:02:21.724Z,16.11
2023-05-23T02:04:51.914Z,16.18
2023-05-23T02:07:24.682Z,16.18
2023-05-23T02:09:55.191Z,16.21
2023-05-23T02:12:25.359Z,16.22
2023-05-23T02:14:58.350Z,16.32
2023-05-23T02:17:29.625Z,16.32
2023-05-23T02:20:00.555Z,16.39
2023-05-23T02:22:30.740Z,16.45
2023-05-23T02:25:00.530Z,16.49
2023-05-23T02:27:31.404Z,16.44
2023-05-23T02:30:01.663Z,16.44
2023-05-23T02:32:33.462Z,16.46
2023-05-23T02:35:04.091Z,16.46
2023-05-23T02:37:34.538Z,16.45
2023-05-23T02:40:07.834Z,16.38
2023-05-23T02:42:39.474Z,16.38
2023-05-23T02:45:10.614Z,16.29
2023-05-23T02:47:41.818Z,16.18
2023-05-23T02:50:13.238Z,16.24
2023-05-23T02:52:43.724Z,16.09
2023-05-23T02:55:13.765Z,16.02
2023-05-23T02:57:53.971Z,16.02
2023-05-23T03:00:24.864Z,16.05
2023-05-23T03:02:59.813Z,15.95
2023-05-23T03:05:30.601Z,15.94
2023-05-23T03:08:01.416Z,15.91
2023-05-23T03:10:32.272Z,15.87
2023-05-23T03:13:03.249Z,15.87
2023-05-23T03:15:33.491Z,15.85
2023-05-23T03:18:04.799Z,15.80
2023-05-23T03:20:37.331Z,15.71
2023-05-23T03:23:07.770Z,15.68
2023-05-23T03:25:38.325Z,15.71
2023-05-23T03:28:08.615Z,15.68
2023-05-23T03:30:39.090Z,15.61
2023-05-23T03:33:10.762Z,15.66
2023-05-23T03:35:41.619Z,15.66
2023-05-23T03:38:11.802Z,15.64
2023-05-23T03:40:42.709Z,15.58
2023-05-23T03:43:14.021Z,15.56
2023-05-23T03:45:46.601Z,15.56
2023-05-23T03:48:18.535Z,15.54
2023-05-23T03:50:50.583Z,15.49
2023-05-23T03:53:21.785Z,15.47
2023-05-23T03:55:51.950Z,15.47
2023-05-23T03:58:22.913Z,15.47
2023-05-23T04:00:58.695Z,15.47
2023-05-23T04:03:33.994Z,15.42
2023-05-23T04:06:06.592Z,15.39
2023-05-23T04:08:39.657Z,15.37
2023-05-23T04:11:10.659Z,15.33
2023-05-23T04:13:43.970Z,15.29
2023-05-23T04:16:14.372Z,15.29
2023-05-23T04:18:44.681Z,15.15
2023-05-23T04:21:15.688Z,15.19
2023-05-23T04:23:58.689Z,15.25
2023-05-23T04:26:29.036Z,15.20
2023-05-23T04:29:00.465Z,15.22
2023-05-23T04:31:36.290Z,15.16
2023-05-23T04:34:09.199Z,15.23
2023-05-23T04:36:41.542Z,15.22
2023-05-23T04:39:12.158Z,15.19
2023-05-23T04:41:49.535Z,15.13
2023-05-23T04:44:39.681Z,15.13
2023-05-23T04:47:18.903Z,15.10
2023-05-23T04:50:06.688Z,15.15
2023-05-23T04:52:37.994Z,15.18
2023-05-23T04:55:10.420Z,15.13
2023-05-23T04:57:41.587Z,15.09
2023-05-23T05:00:13.074Z,15.10
2023-05-23T05:02:44.734Z,15.09
2023-05-23T05:05:15.120Z,15.02
2023-05-23T05:07:45.927Z,15.00
2023-05-23T05:10:19.884Z,14.98
2023-05-23T05:12:51.065Z,14.99
2023-05-23T05:15:24.813Z,14.91
2023-05-23T05:17:59.183Z,14.89
2023-05-23T05:20:30.537Z,14.92
2023-05-23T05:23:01.695Z,15.05
2023-05-23T05:25:37.390Z,15.12
2023-05-23T05:28:07.542Z,14.92
2023-05-23T05:30:43.737Z,14.93
2023-05-23T05:33:14.956Z,14.89
2023-05-23T05:35:45.934Z,14.95
2023-05-23T05:38:16.269Z,14.93
2023-05-23T05:40:46.691Z,14.93
2023-05-23T05:43:17.953Z,14.87
2023-05-23T05:45:49.199Z,14.87
2023-05-23T05:48:19.784Z,14.85
2023-05-23T05:50:49.947Z,14.85
2023-05-23T05:53:20.616Z,14.82
2023-05-23T05:55:52.181Z,14.75
2023-05-23T05:58:23.688Z,14.77
2023-05-23T06:01:15.406Z,14.77
2023-05-23T06:03:47.571Z,14.77
2023-05-23T06:06:18.464Z,14.72
2023-05-23T06:08:48.609Z,14.72
2023-05-23T06:11:19.898Z,14.77
2023-05-23T06:13:50.348Z,14.77
2023-05-23T06:16:21.119Z,14.69
2023-05-23T06:18:52.225Z,14.65
2023-05-23T06:21:23.499Z,14.67
2023-05-23T06:23:54.908Z,14.68
2023-05-23T06:26:25.913Z,14.71
2023-05-23T06:28:57.003Z,14.72
2023-05-23T06:31:27.491Z,14.71
2023-05-23T06:33:57.421Z,14.71
2023-05-23T06:36:28.747Z,14.65
2023-05-23T06:38:59.712Z,14.63
2023-05-23T06:41:31.148Z,14.68
2023-05-23T06:44:02.250Z,14.61
2023-05-23T06:46:34.035Z,14.64
2023-05-23T06:49:14.362Z,14.64
2023-05-23T06:51:48.076Z,14.61
2023-05-23T06:54:18.401Z,14.50
2023-05-23T06:56:55.060Z,14.56
2023-05-23T06:59:25.909Z,14.51
2023-05-23T07:01:57.848Z,14.58
2023-05-23T07:04:28.233Z,14.58
2023-05-23T07:07:03.500Z,14.52
2023-05-23T07:09:35.749Z,14.36
2023-05-23T07:12:13.508Z,14.38
2023-05-23T07:14:46.362Z,14.31
2023-05-23T07:17:17.706Z,14.40
2023-05-23T07:19:49.781Z,14.44
2023-05-23T07:22:21.064Z,14.45
2023-05-23T07:24:51.860Z,14.44
2023-05-23T07:27:23.987Z,14.38
2023-05-23T07:29:54.660Z,14.42
2023-05-23T07:32:25.822Z,14.34
2023-05-23T07:34:57.381Z,14.38
2023-05-23T07:37:28.722Z,14.29
2023-05-23T07:39:59.972Z,14.33
2023-05-23T07:42:30.817Z,14.36
2023-05-23T07:45:00.823Z,14.36
2023-05-23T07:47:31.777Z,14.38
2023-05-23T07:50:03.499Z,14.30
2023-05-23T07:52:35.736Z,14.33
2023-05-23T07:55:09.381Z,14.34
2023-05-23T07:57:41.265Z,14.26
2023-05-23T08:00:13.567Z,14.20
2023-05-23T08:02:47.240Z,14.19
2023-05-23T08:05:27.584Z,14.17
2023-05-23T08:08:00.161Z,14.30
2023-05-23T08:10:31.146Z,14.24
2023-05-23T08:13:10.628Z,14.23
2023-05-23T08:15:52.753Z,14.23
2023-05-23T08:18:28.061Z,14.17
2023-05-23T08:20:59.000Z,14.16
2023-05-23T08:23:31.015Z,14.14
2023-05-23T08:26:02.483Z,14.19
2023-05-23T08:28:35.896Z,14.20
2023-05-23T08:31:08.530Z,14.21
2023-05-23T08:33:43.346Z,14.17
2023-05-23T08:36:13.275Z,14.19
2023-05-23T08:38:45.035Z,14.19
2023-05-23T08:41:23.170Z,14.02
2023-05-23T08:44:00.674Z,14.05
2023-05-23T08:46:41.317Z,14.05
2023-05-23T08:49:15.485Z,14.06
2023-05-23T08:51:47.514Z,14.03
2023-05-23T08:54:23.809Z,13.98
2023-05-23T08:56:54.301Z,13.95
2023-05-23T08:59:25.590Z,13.95
2023-05-23T09:01:59.316Z,13.96
2023-05-23T09:04:37.227Z,13.96
2023-05-23T09:07:17.951Z,13.95
2023-05-23T09:09:51.548Z,13.90
2023-05-23T09:12:25.394Z,13.95
2023-05-23T09:14:57.522Z,13.93
2023-05-23T09:17:28.425Z,13.92
2023-05-23T09:19:58.438Z,13.90
2023-05-23T09:22:52.247Z,13.86
2023-05-23T09:25:22.887Z,13.83
2023-05-23T09:27:55.685Z,13.82
2023-05-23T09:30:26.854Z,13.86
2023-05-23T09:33:05.910Z,13.82
2023-05-23T09:35:37.251Z,13.78
2023-05-23T09:38:10.254Z,13.83
2023-05-23T09:40:46.834Z,13.87
2023-05-23T09:43:20.000Z,13.85
2023-05-23T09:45:54.550Z,13.86
2023-05-23T09:48:34.463Z,13.92
2023-05-23T09:51:11.249Z,13.87
2023-05-23T09:53:42.938Z,13.87
2023-05-23T09:56:16.724Z,13.85
2023-05-23T09:58:50.061Z,13.78
2023-05-23T10:01:21.169Z,13.75
2023-05-23T10:04:00.206Z,13.80
2023-05-23T10:06:41.678Z,13.80
2023-05-23T10:09:17.154Z,13.76
2023-05-23T10:12:02.647Z,13.82
2023-05-23T10:14:37.630Z,13.90
2023-05-23T10:17:23.361Z,14.02
2023-05-23T10:20:09.552Z,14.08
2023-05-23T10:22:40.764Z,14.06
2023-05-23T10:25:12.136Z,14.06
2023-05-23T10:27:45.606Z,14.06
2023-05-23T10:30:16.077Z,14.12
2023-05-23T10:32:47.621Z,14.13
2023-05-23T10:35:46.598Z,14.19
2023-05-23T10:38:28.741Z,14.24
2023-05-23T10:41:12.508Z,14.75
2023-05-23T10:44:17.566Z,16.18
2023-05-23T10:47:02.650Z,16.33
2023-05-23T10:49:41.986Z,16.06
2023-05-23T10:52:14.633Z,17.32
2023-05-23T10:54:47.425Z,17.59
2023-05-23T10:57:30.700Z,17.65
2023-05-23T11:00:01.052Z,18.23
2023-05-23T11:02:31.659Z,18.12
2023-05-23T11:05:23.796Z,17.58
2023-05-23T11:08:16.373Z,17.71
2023-05-23T11:11:04.902Z,18.40
2023-05-23T11:13:53.029Z,20.08
2023-05-23T11:16:42.937Z,20.28
2023-05-23T11:19:32.568Z,19.15
2023-05-23T11:22:08.095Z,18.99
2023-05-23T11:24:55.143Z,18.55
2023-05-23T11:27:30.519Z,19.87
2023-05-23T11:30:21.012Z,21.56
2023-05-23T11:32:54.396Z,21.71
2023-05-23T11:35:24.797Z,23.63
2023-05-23T11:37:54.735Z,24.12
2023-05-23T11:40:41.165Z,23.15
2023-05-23T11:43:20.807Z,24.97
2023-05-23T11:45:51.864Z,25.64
2023-05-23T11:48:21.842Z,26.43
2023-05-23T11:50:53.950Z,27.33
2023-05-23T11:53:27.299Z,27.81
2023-05-23T11:56:01.360Z,27.78
2023-05-23T11:58:33.228Z,27.81
2023-05-23T12:01:10.541Z,27.74
2023-05-23T12:03:53.041Z,27.94
2023-05-23T12:06:26.595Z,27.60
2023-05-23T12:08:56.794Z,28.09
2023-05-23T12:11:28.182Z,28.36
2023-05-23T12:14:01.198Z,28.79
2023-05-23T12:16:32.354Z,28.94
2023-05-23T12:19:04.307Z,29.14
2023-05-23T12:21:48.310Z,29.52
2023-05-23T12:24:24.635Z,29.03
2023-05-23T12:26:57.773Z,29.28
2023-05-23T12:29:37.021Z,28.73
2023-05-23T12:32:08.896Z,29.47
2023-05-23T12:34:45.453Z,29.43
2023-05-23T12:37:20.290Z,28.84
2023-05-23T12:39:50.502Z,29.10
2023-05-23T12:42:20.278Z,29.00
2023-05-23T12:44:55.911Z,28.77
2023-05-23T12:47:27.229Z,29.34
2023-05-23T12:49:57.536Z,29.57
2023-05-23T12:52:27.481Z,29.59
2023-05-23T12:54:58.728Z,29.43
2023-05-23T12:57:29.669Z,28.63
2023-05-23T13:00:01.047Z,28.70
2023-05-23T13:02:31.750Z,28.75
2023-05-23T13:05:02.964Z,28.96
2023-05-23T13:07:34.002Z,28.55
2023-05-23T13:10:04.261Z,28.90
2023-05-23T13:12:35.450Z,29.33
2023-05-23T13:15:08.760Z,29.20
2023-05-23T13:17:39.586Z,28.70
2023-05-23T13:20:10.452Z,28.73
2023-05-23T13:22:40.708Z,29.13
2023-05-23T13:25:11.330Z,28.75
2023-05-23T13:27:42.601Z,28.39
2023-05-23T13:30:12.975Z,28.27
2023-05-23T13:32:45.257Z,28.07
2023-05-23T13:35:16.869Z,27.84
2023-05-23T13:37:48.303Z,28.24
2023-05-23T13:40:22.992Z,28.67
2023-05-23T13:42:54.612Z,28.75
2023-05-23T13:45:26.173Z,29.39
2023-05-23T13:47:57.770Z,29.71
2023-05-23T13:50:28.493Z,29.11
2023-05-23T13:52:59.104Z,29.51
2023-05-23T13:55:29.984Z,29.62
2023-05-23T13:58:01.138Z,29.75
2023-05-23T14:00:31.638Z,29.98
2023-05-23T14:03:01.796Z,30.10
2023-05-23T14:05:32.681Z,28.90
2023-05-23T14:08:05.008Z,29.23
2023-05-23T14:10:35.317Z,29.24
2023-05-23T14:13:05.228Z,28.92
2023-05-23T14:15:37.261Z,29.27
2023-05-23T14:18:08.028Z,28.84
2023-05-23T14:20:37.873Z,29.06
2023-05-23T14:23:09.007Z,30.09
2023-05-23T14:25:39.948Z,30.09
2023-05-23T14:28:10.724Z,29.15
2023-05-23T14:30:40.678Z,28.73
2023-05-23T14:33:11.989Z,28.42
2023-05-23T14:35:44.776Z,28.90
2023-05-23T14:38:15.350Z,29.08
2023-05-23T14:40:47.587Z,29.34
2023-05-23T14:43:18.468Z,29.20
2023-05-23T14:45:48.974Z,29.04
2023-05-23T14:48:21.133Z,29.04
2023-05-23T14:50:53.652Z,28.93
2023-05-23T14:53:25.113Z,29.18
2023-05-23T14:55:55.578Z,29.45
2023-05-23T14:58:26.940Z,29.14
2023-05-23T15:00:58.952Z,29.27
2023-05-23T15:03:30.445Z,29.61
2023-05-23T15:06:01.505Z,29.52
2023-05-23T15:08:33.002Z,29.45
2023-05-23T15:11:05.295Z,29.73
2023-05-23T15:13:35.540Z,29.78
2023-05-23T15:16:05.562Z,30.06
2023-05-23T15:18:41.387Z,29.73
2023-05-23T15:21:13.464Z,30.05
2023-05-23T15:23:44.231Z,30.41
2023-05-23T15:26:14.109Z,30.45
2023-05-23T15:28:45.144Z,30.39
2023-05-23T15:31:16.125Z,30.24
2023-05-23T15:33:46.998Z,29.92
2023-05-23T15:36:18.108Z,29.83
2023-05-23T15:38:48.794Z,29.95
2023-05-23T15:41:19.138Z,30.37
2023-05-23T15:43:49.830Z,30.78
2023-05-23T15:46:19.683Z,30.39
2023-05-23T15:48:49.988Z,30.26
2023-05-23T15:51:19.863Z,29.79
2023-05-23T15:56:24.979Z,30.02
2023-05-23T15:58:56.740Z,29.92
2023-05-23T16:01:26.862Z,30.56
2023-05-23T16:03:56.712Z,30.57
2023-05-23T16:06:27.209Z,30.65
2023-05-23T16:08:57.649Z,30.94
2023-05-23T16:11:31.378Z,30.98
2023-05-23T16:14:01.655Z,30.95
2023-05-23T16:16:31.532Z,31.03
2023-05-23T16:19:01.802Z,31.14
2023-05-23T16:21:32.321Z,31.30
2023-05-23T16:24:03.184Z,30.99
2023-05-23T16:26:33.360Z,30.91
2023-05-23T16:29:03.806Z,31.91
2023-05-23T16:31:33.637Z,32.24
2023-05-23T16:34:04.498Z,32.78
2023-05-23T16:36:35.062Z,32.58
2023-05-23T16:39:05.508Z,32.59
2023-05-23T16:41:36.402Z,33.03
2023-05-23T16:44:08.444Z,32.99
2023-05-23T16:46:39.082Z,32.93
2023-05-23T16:49:09.582Z,32.59
2023-05-23T16:51:40.018Z,33.35
2023-05-23T16:54:10.823Z,33.30
2023-05-23T16:56:41.551Z,33.55
2023-05-23T16:59:11.903Z,34.23
2023-05-23T17:01:41.865Z,35.03
2023-05-23T17:04:12.223Z,35.25
2023-05-23T17:06:42.544Z,35.39
2023-05-23T17:09:12.880Z,35.83
2023-05-23T17:11:43.093Z,35.06
2023-05-23T17:14:12.977Z,35.59
2023-05-23T17:16:44.099Z,35.55
2023-05-23T17:19:15.536Z,35.61
2023-05-23T17:21:45.833Z,35.82
2023-05-23T17:24:15.632Z,36.20
2023-05-23T17:26:46.051Z,36.48
2023-05-23T17:29:18.445Z,36.33
2023-05-23T17:31:49.112Z,36.00
2023-05-23T17:34:19.034Z,36.06
2023-05-23T17:36:49.552Z,36.41
2023-05-23T17:39:20.466Z,37.55
2023-05-23T17:41:51.353Z,38.17
2023-05-23T17:44:21.834Z,37.18
2023-05-23T17:46:52.318Z,37.88
2023-05-23T17:49:23.459Z,38.35
2023-05-23T17:51:54.923Z,37.86
2023-05-23T17:54:25.987Z,37.62
2023-05-23T17:56:56.216Z,37.33
2023-05-23T17:59:28.547Z,37.28
2023-05-23T18:02:00.469Z,37.08
2023-05-23T18:04:31.081Z,37.30
2023-05-23T18:07:01.405Z,36.39
2023-05-23T18:09:32.181Z,36.67
2023-05-23T18:12:03.316Z,35.71
2023-05-23T18:14:33.471Z,36.72
2023-05-23T18:17:03.489Z,36.17
2023-05-23T18:19:34.876Z,35.99
2023-05-23T18:22:05.524Z,34.45
2023-05-23T18:24:35.628Z,34.55
2023-05-23T18:27:06.149Z,34.86
2023-05-23T18:29:36.471Z,33.91
2023-05-23T18:32:07.433Z,34.05
2023-05-23T18:34:39.115Z,34.18
2023-05-23T18:37:09.731Z,33.92
2023-05-23T18:39:40.868Z,33.14
2023-05-23T18:42:11.836Z,32.41
2023-05-23T18:44:42.201Z,31.09
2023-05-23T18:47:12.800Z,30.43
2023-05-23T18:49:42.844Z,30.26
2023-05-23T18:52:14.852Z,30.16
2023-05-23T18:54:46.209Z,29.96
2023-05-23T18:57:18.476Z,29.75
2023-05-23T18:59:51.396Z,29.58
2023-05-23T19:02:22.923Z,29.10
2023-05-23T19:04:54.576Z,28.65
2023-05-23T19:07:24.826Z,28.29
2023-05-23T19:09:54.689Z,27.94
2023-05-23T19:12:24.955Z,27.80
2023-05-23T19:14:55.718Z,27.53
2023-05-23T19:17:27.677Z,27.38
2023-05-23T19:19:57.678Z,27.29
2023-05-23T19:22:39.144Z,27.02
2023-05-23T19:25:20.561Z,26.81
2023-05-23T19:27:50.921Z,26.74
2023-05-23T19:30:21.566Z,26.61
2023-05-23T19:32:51.646Z,26.51
2023-05-23T19:35:23.077Z,26.43
2023-05-23T19:37:53.764Z,26.24
2023-05-23T19:40:23.663Z,26.13
2023-05-23T19:42:53.894Z,25.99
2023-05-23T19:45:25.039Z,25.82
2023-05-23T19:47:55.484Z,25.71
2023-05-23T19:50:25.773Z,25.48
2023-05-23T19:52:56.094Z,25.24
2023-05-23T19:55:25.968Z,25.04
2023-05-23T19:57:56.142Z,24.86
2023-05-23T20:00:26.852Z,24.60
2023-05-23T20:02:58.528Z,24.36
2023-05-23T20:05:28.755Z,24.15
2023-05-23T20:07:59.132Z,23.96
2023-05-23T20:10:29.967Z,23.75
2023-05-23T20:13:00.981Z,23.59
2023-05-23T20:15:39.520Z,23.43
2023-05-23T20:18:11.462Z,23.26
2023-05-23T20:20:42.710Z,23.10
2023-05-23T20:23:13.341Z,22.94
2023-05-23T20:25:44.303Z,22.72
2023-05-23T20:28:14.694Z,22.51
2023-05-23T20:30:45.067Z,22.33
2023-05-23T20:33:15.927Z,22.16
2023-05-23T20:35:49.373Z,22.04
2023-05-23T20:38:21.528Z,21.90
2023-05-23T20:40:52.664Z,21.88
2023-05-23T20:43:23.995Z,21.75
2023-05-23T20:45:54.106Z,21.65
2023-05-23T20:48:23.854Z,21.51
2023-05-23T20:50:54.496Z,21.38
2023-05-23T20:53:25.305Z,21.30
2023-05-23T20:55:56.251Z,21.17
2023-05-23T20:58:27.460Z,21.12
2023-05-23T21:00:57.351Z,21.07
2023-05-23T21:03:30.228Z,20.97
2023-05-23T21:06:01.198Z,20.93
2023-05-23T21:08:33.106Z,20.93
2023-05-23T21:11:05.033Z,21.01
2023-05-23T21:13:37.111Z,21.00
2023-05-23T21:16:10.248Z,21.00
2023-05-23T21:18:40.561Z,20.97
2023-05-23T21:21:10.437Z,21.05
2023-05-23T21:23:41.712Z,21.21
2023-05-23T21:26:12.230Z,21.21
2023-05-23T21:28:44.513Z,21.15
2023-05-23T21:31:16.349Z,21.23
2023-05-23T21:33:49.689Z,21.38
2023-05-23T21:36:20.101Z,21.31
2023-05-23T21:38:51.065Z,21.37
2023-05-23T21:41:21.852Z,21.45
2023-05-23T21:43:51.938Z,21.20
2023-05-23T21:46:22.386Z,21.14
2023-05-23T21:48:54.431Z,21.10
2023-05-23T21:51:24.393Z,21.08
2023-05-23T21:53:54.221Z,20.97
2023-05-23T21:56:25.489Z,20.96
2023-05-23T21:58:55.884Z,20.87
2023-05-23T22:01:26.500Z,20.96
2023-05-23T22:03:56.546Z,20.90
2023-05-23T22:06:27.347Z,20.74
2023-05-23T22:08:57.791Z,20.65
2023-05-23T22:11:34.827Z,20.56
2023-05-23T22:14:05.379Z,20.43
2023-05-23T22:16:35.523Z,20.33
2023-05-23T22:19:07.666Z,20.25
2023-05-23T22:21:39.650Z,20.19
2023-05-23T22:24:10.140Z,20.07
2023-05-23T22:26:41.408Z,19.91
2023-05-23T22:29:12.257Z,19.88
2023-05-23T22:31:43.181Z,19.85
2023-05-23T22:34:13.638Z,19.85
2023-05-23T22:36:43.541Z,19.82
2023-05-23T22:39:14.857Z,19.71
2023-05-23T22:41:45.695Z,19.60
2023-05-23T22:44:15.860Z,19.50
2023-05-23T22:46:46.108Z,19.50
2023-05-23T22:49:17.783Z,19.41
2023-05-23T22:51:48.336Z,19.39
2023-05-23T22:54:18.595Z,19.39
2023-05-23T22:56:48.669Z,19.36
2023-05-23T22:59:18.517Z,19.29
2023-05-23T23:01:49.129Z,19.24
2023-05-23T23:04:24.787Z,19.20
2023-05-23T23:06:55.957Z,19.15
2023-05-23T23:09:26.072Z,19.13
2023-05-23T23:11:56.397Z,19.05
2023-05-23T23:14:27.335Z,18.98
2023-05-23T23:16:59.489Z,18.99
2023-05-23T23:19:30.911Z,19.00
2023-05-23T23:22:01.259Z,18.94
2023-05-23T23:24:32.730Z,18.82
2023-05-23T23:27:10.297Z,18.72
2023-05-23T23:29:41.213Z,18.71
2023-05-23T23:32:12.288Z,18.72
2023-05-23T23:34:44.183Z,18.68
2023-05-23T23:37:16.763Z,18.61
2023-05-23T23:39:47.500Z,18.57
2023-05-23T23:42:18.338Z,18.55
2023-05-23T23:44:50.444Z,18.58
2023-05-23T23:47:22.728Z,18.60
2023-05-23T23:49:54.302Z,18.54
2023-05-23T23:52:25.326Z,18.48
2023-05-23T23:54:56.854Z,18.40
2023-05-23T23:57:28.594Z,18.44
2023-05-23T23:59:59.779Z,18.41
